Tropical Cyclones
[Index]
Season 2020-2021 Tropical Cyclone 202128 Track Map
Season 2020-2021 Summaries (Operational Data): [AU] [SIO] [SPAC] [SH]
<<- Previous TC | 2020-2021 Season | Next TC ->>

click for intensity scale information  Lat/long Grid: Show Hide

 Date Labels: Show Hide

Operational Tropical Cyclone Data

Name: 202128
Number: 2128

07 Apr 2021 00:00 UTC to 11 Apr 2021 18:00 UTC

    date/time    lat    long     hPa   cat  kts
2021-04-07 00   10.3   153.2    1010         15          
2021-04-07 06   10.7   153.9    1010         15          
2021-04-07 12   11.4   154.4    1005         20          
2021-04-07 18   11.6   154.8    1004         20          
2021-04-08 00   12.6   155.0    1004         20          
2021-04-08 06   12.8   155.8    1007         20          
2021-04-08 12   13.1   156.1    1007         20          
2021-04-08 18   13.9   156.7    1004         20          
2021-04-09 00   14.9   157.4    1004         20          
2021-04-09 06   15.7   158.9    1002         20          
2021-04-09 12   17.0   160.5    1004         20          
2021-04-09 18   18.2   162.0    1002         25          
2021-04-10 00   19.6   163.5    1003         25          
2021-04-10 06   20.7   164.7    1003         25          
2021-04-10 12   21.8   165.8    1002         30          
2021-04-10 18   23.2   166.7     999         30          
2021-04-11 00   24.6   167.9    1002    1    35          
2021-04-11 06   26.1   169.2    1001    1    35          
2021-04-11 12   27.0   170.2    1006         30          
2021-04-11 18   27.9   171.4    1000         30          
Winds were reported as (or converted to) 10-min average.

Tropical cyclone tracks developed by Michael Bath using operational warnings and advisories and Google Maps.


Document: tropical_cyclone_202128.htm
Updated: 7 May 2021
[Australian Severe Weather index] [Copyright Notice] [Email Contacts] [Search This Site] [Privacy Policy]


Main Index Home Page Stock Weather Photos Extreme Storms Discussion Storm News and Storm Chasing Reports Tropical Cyclones / Hurricanes / Typhoons Weather Data and Links Wild Fires / Bushfires Weather Observation Techniques Weather Picture Catalogue Tornado Pictures and Reports Stock Video Footage and DVDs for sale